sensor_id;sensor_type;location;lat;lon;timestamp;temperature;humidity
41928;DHT22;27616;51.420;6.788;2023-04-01T00:00:20;9.40;99.90
41928;DHT22;27616;51.420;6.788;2023-04-01T00:02:47;9.50;99.90
41928;DHT22;27616;51.420;6.788;2023-04-01T00:05:13;9.50;99.90
41928;DHT22;27616;51.420;6.788;2023-04-01T00:07:39;9.50;99.90
41928;DHT22;27616;51.420;6.788;2023-04-01T00:10:07;9.50;99.90
41928;DHT22;27616;51.420;6.788;2023-04-01T00:12:34;9.50;99.90
41928;DHT22;27616;51.420;6.788;2023-04-01T00:15:00;9.60;99.90
41928;DHT22;27616;51.420;6.788;2023-04-01T00:17:26;9.60;99.90
41928;DHT22;27616;51.420;6.788;2023-04-01T00:19:54;9.60;99.90
41928;DHT22;27616;51.420;6.788;2023-04-01T00:22:20;9.60;99.90
41928;DHT22;27616;51.420;6.788;2023-04-01T00:24:47;9.50;99.90
41928;DHT22;27616;51.420;6.788;2023-04-01T00:27:13;9.60;99.90
41928;DHT22;27616;51.420;6.788;2023-04-01T00:29:42;9.60;99.90
41928;DHT22;27616;51.420;6.788;2023-04-01T00:32:08;9.60;99.90
41928;DHT22;27616;51.420;6.788;2023-04-01T00:34:34;9.50;99.90
41928;DHT22;27616;51.420;6.788;2023-04-01T00:36:59;9.50;99.90
41928;DHT22;27616;51.420;6.788;2023-04-01T00:39:28;9.50;99.90
41928;DHT22;27616;51.420;6.788;2023-04-01T00:41:54;9.50;99.90
41928;DHT22;27616;51.420;6.788;2023-04-01T00:44:23;9.50;99.90
41928;DHT22;27616;51.420;6.788;2023-04-01T00:46:50;9.50;99.90
41928;DHT22;27616;51.420;6.788;2023-04-01T00:49:19;9.50;99.90
41928;DHT22;27616;51.420;6.788;2023-04-01T00:51:50;9.40;99.90
41928;DHT22;27616;51.420;6.788;2023-04-01T00:54:19;9.40;99.90
41928;DHT22;27616;51.420;6.788;2023-04-01T00:56:56;9.40;99.90
41928;DHT22;27616;51.420;6.788;2023-04-01T00:59:26;9.40;99.90
41928;DHT22;27616;51.420;6.788;2023-04-01T01:01:53;9.50;99.90
41928;DHT22;27616;51.420;6.788;2023-04-01T01:04:27;9.50;99.90
41928;DHT22;27616;51.420;6.788;2023-04-01T01:07:19;9.50;99.90
41928;DHT22;27616;51.420;6.788;2023-04-01T01:20:16;9.50;99.90
41928;DHT22;27616;51.420;6.788;2023-04-01T01:31:16;9.50;99.90
41928;DHT22;27616;51.420;6.788;2023-04-01T01:36:38;9.50;99.90
41928;DHT22;27616;51.420;6.788;2023-04-01T01:39:09;9.50;99.90
41928;DHT22;27616;51.420;6.788;2023-04-01T01:41:38;9.60;99.90
41928;DHT22;27616;51.420;6.788;2023-04-01T01:44:07;9.60;99.90
41928;DHT22;27616;51.420;6.788;2023-04-01T01:46:34;9.60;99.90
41928;DHT22;27616;51.420;6.788;2023-04-01T01:49:02;9.60;99.90
41928;DHT22;27616;51.420;6.788;2023-04-01T01:51:28;9.60;99.90
41928;DHT22;27616;51.420;6.788;2023-04-01T01:53:55;9.60;99.90
41928;DHT22;27616;51.420;6.788;2023-04-01T01:56:26;9.70;99.90
41928;DHT22;27616;51.420;6.788;2023-04-01T01:59:08;9.60;99.90
41928;DHT22;27616;51.420;6.788;2023-04-01T02:01:38;9.60;99.90
41928;DHT22;27616;51.420;6.788;2023-04-01T02:04:11;9.60;99.90
41928;DHT22;27616;51.420;6.788;2023-04-01T02:06:46;9.60;99.90
41928;DHT22;27616;51.420;6.788;2023-04-01T02:09:14;9.60;99.90
41928;DHT22;27616;51.420;6.788;2023-04-01T02:11:49;9.60;99.90
41928;DHT22;27616;51.420;6.788;2023-04-01T02:14:20;9.60;99.90
41928;DHT22;27616;51.420;6.788;2023-04-01T02:19:22;9.50;99.90
41928;DHT22;27616;51.420;6.788;2023-04-01T02:21:55;9.50;99.90
41928;DHT22;27616;51.420;6.788;2023-04-01T02:24:23;9.50;99.90
41928;DHT22;27616;51.420;6.788;2023-04-01T02:26:51;9.50;99.90
41928;DHT22;27616;51.420;6.788;2023-04-01T02:29:20;9.40;99.90
41928;DHT22;27616;51.420;6.788;2023-04-01T02:31:46;9.50;99.90
41928;DHT22;27616;51.420;6.788;2023-04-01T02:34:12;9.50;99.90
41928;DHT22;27616;51.420;6.788;2023-04-01T02:36:39;9.50;99.90
41928;DHT22;27616;51.420;6.788;2023-04-01T02:39:05;9.40;99.90
41928;DHT22;27616;51.420;6.788;2023-04-01T02:41:39;9.50;99.90
41928;DHT22;27616;51.420;6.788;2023-04-01T02:44:05;9.50;99.90
41928;DHT22;27616;51.420;6.788;2023-04-01T02:46:31;9.40;99.90
41928;DHT22;27616;51.420;6.788;2023-04-01T02:48:57;9.40;99.90
41928;DHT22;27616;51.420;6.788;2023-04-01T02:51:23;9.30;99.90
41928;DHT22;27616;51.420;6.788;2023-04-01T02:53:49;9.20;99.90
41928;DHT22;27616;51.420;6.788;2023-04-01T02:56:14;9.20;99.90
41928;DHT22;27616;51.420;6.788;2023-04-01T02:58:40;9.20;99.90
41928;DHT22;27616;51.420;6.788;2023-04-01T03:01:06;9.20;99.90
41928;DHT22;27616;51.420;6.788;2023-04-01T03:03:33;9.10;99.90
41928;DHT22;27616;51.420;6.788;2023-04-01T03:06:08;9.20;99.90
41928;DHT22;27616;51.420;6.788;2023-04-01T03:08:34;9.10;99.90
41928;DHT22;27616;51.420;6.788;2023-04-01T03:11:00;9.20;99.90
41928;DHT22;27616;51.420;6.788;2023-04-01T03:13:26;9.10;99.90
41928;DHT22;27616;51.420;6.788;2023-04-01T03:15:52;9.10;99.90
41928;DHT22;27616;51.420;6.788;2023-04-01T03:18:18;9.10;99.90
41928;DHT22;27616;51.420;6.788;2023-04-01T03:20:45;9.20;99.90
41928;DHT22;27616;51.420;6.788;2023-04-01T03:23:11;9.10;99.90
41928;DHT22;27616;51.420;6.788;2023-04-01T03:25:36;9.10;99.90
41928;DHT22;27616;51.420;6.788;2023-04-01T03:28:02;9.20;99.90
41928;DHT22;27616;51.420;6.788;2023-04-01T03:30:29;9.20;99.90
41928;DHT22;27616;51.420;6.788;2023-04-01T03:32:58;9.20;99.90
41928;DHT22;27616;51.420;6.788;2023-04-01T03:35:25;9.30;99.90
41928;DHT22;27616;51.420;6.788;2023-04-01T03:37:51;9.30;99.90
41928;DHT22;27616;51.420;6.788;2023-04-01T03:40:17;9.30;99.90
41928;DHT22;27616;51.420;6.788;2023-04-01T03:42:43;9.30;99.90
41928;DHT22;27616;51.420;6.788;2023-04-01T03:45:09;9.30;99.90
41928;DHT22;27616;51.420;6.788;2023-04-01T03:47:38;9.30;99.90
41928;DHT22;27616;51.420;6.788;2023-04-01T03:50:05;9.30;99.90
41928;DHT22;27616;51.420;6.788;2023-04-01T03:52:31;9.30;99.90
41928;DHT22;27616;51.420;6.788;2023-04-01T03:54:57;9.30;99.90
41928;DHT22;27616;51.420;6.788;2023-04-01T03:57:23;9.40;99.90
41928;DHT22;27616;51.420;6.788;2023-04-01T03:59:49;9.40;99.90
41928;DHT22;27616;51.420;6.788;2023-04-01T04:02:15;9.30;99.90
41928;DHT22;27616;51.420;6.788;2023-04-01T04:04:41;9.40;99.90
41928;DHT22;27616;51.420;6.788;2023-04-01T04:07:08;9.30;99.90
41928;DHT22;27616;51.420;6.788;2023-04-01T04:09:53;9.30;99.90
41928;DHT22;27616;51.420;6.788;2023-04-01T04:12:19;9.40;99.90
41928;DHT22;27616;51.420;6.788;2023-04-01T04:14:45;9.40;99.90
41928;DHT22;27616;51.420;6.788;2023-04-01T04:17:11;9.30;99.90
41928;DHT22;27616;51.420;6.788;2023-04-01T04:19:42;9.30;99.90
41928;DHT22;27616;51.420;6.788;2023-04-01T04:22:08;9.40;99.90
41928;DHT22;27616;51.420;6.788;2023-04-01T04:24:35;9.40;99.90
41928;DHT22;27616;51.420;6.788;2023-04-01T04:27:06;9.40;99.90
41928;DHT22;27616;51.420;6.788;2023-04-01T04:29:35;9.40;99.90
41928;DHT22;27616;51.420;6.788;2023-04-01T04:32:00;9.40;99.90
41928;DHT22;27616;51.420;6.788;2023-04-01T04:34:27;9.40;99.90
41928;DHT22;27616;51.420;6.788;2023-04-01T04:36:52;9.40;99.90
41928;DHT22;27616;51.420;6.788;2023-04-01T04:39:21;9.40;99.90
41928;DHT22;27616;51.420;6.788;2023-04-01T04:41:47;9.40;99.90
41928;DHT22;27616;51.420;6.788;2023-04-01T04:44:13;9.40;99.90
41928;DHT22;27616;51.420;6.788;2023-04-01T04:46:39;9.40;99.90
41928;DHT22;27616;51.420;6.788;2023-04-01T04:49:11;9.40;99.90
41928;DHT22;27616;51.420;6.788;2023-04-01T04:51:37;9.40;99.90
41928;DHT22;27616;51.420;6.788;2023-04-01T04:54:04;9.50;99.90
41928;DHT22;27616;51.420;6.788;2023-04-01T04:56:53;9.40;99.90
41928;DHT22;27616;51.420;6.788;2023-04-01T04:59:20;9.40;99.90
41928;DHT22;27616;51.420;6.788;2023-04-01T05:01:54;9.50;99.90
41928;DHT22;27616;51.420;6.788;2023-04-01T05:04:20;9.50;99.90
41928;DHT22;27616;51.420;6.788;2023-04-01T05:06:46;9.40;99.90
41928;DHT22;27616;51.420;6.788;2023-04-01T05:09:12;9.40;99.90
41928;DHT22;27616;51.420;6.788;2023-04-01T05:11:39;9.40;99.90
41928;DHT22;27616;51.420;6.788;2023-04-01T05:14:05;9.40;99.90
41928;DHT22;27616;51.420;6.788;2023-04-01T05:16:32;9.40;99.90
41928;DHT22;27616;51.420;6.788;2023-04-01T05:18:58;9.40;99.90
41928;DHT22;27616;51.420;6.788;2023-04-01T05:21:24;9.40;99.90
41928;DHT22;27616;51.420;6.788;2023-04-01T05:23:52;9.40;99.90
41928;DHT22;27616;51.420;6.788;2023-04-01T05:26:18;9.40;99.90
41928;DHT22;27616;51.420;6.788;2023-04-01T05:28:44;9.40;99.90
41928;DHT22;27616;51.420;6.788;2023-04-01T05:31:10;9.30;99.90
41928;DHT22;27616;51.420;6.788;2023-04-01T05:33:41;9.30;99.90
41928;DHT22;27616;51.420;6.788;2023-04-01T05:36:08;9.40;99.90
41928;DHT22;27616;51.420;6.788;2023-04-01T05:38:34;9.40;99.90
41928;DHT22;27616;51.420;6.788;2023-04-01T05:41:01;9.40;99.90
41928;DHT22;27616;51.420;6.788;2023-04-01T05:43:29;9.30;99.90
41928;DHT22;27616;51.420;6.788;2023-04-01T05:45:58;9.30;99.90
41928;DHT22;27616;51.420;6.788;2023-04-01T05:48:46;9.40;99.90
41928;DHT22;27616;51.420;6.788;2023-04-01T05:51:13;9.40;99.90
41928;DHT22;27616;51.420;6.788;2023-04-01T05:53:40;9.40;99.90
41928;DHT22;27616;51.420;6.788;2023-04-01T05:56:06;9.40;99.90
41928;DHT22;27616;51.420;6.788;2023-04-01T05:58:38;9.40;99.90
41928;DHT22;27616;51.420;6.788;2023-04-01T06:01:07;9.30;99.90
41928;DHT22;27616;51.420;6.788;2023-04-01T06:03:34;9.30;99.90
41928;DHT22;27616;51.420;6.788;2023-04-01T06:05:59;9.40;99.90
41928;DHT22;27616;51.420;6.788;2023-04-01T06:08:27;9.40;99.90
41928;DHT22;27616;51.420;6.788;2023-04-01T06:25:04;9.40;99.90
41928;DHT22;27616;51.420;6.788;2023-04-01T06:33:05;9.40;99.90
41928;DHT22;27616;51.420;6.788;2023-04-01T06:36:39;9.40;99.90
41928;DHT22;27616;51.420;6.788;2023-04-01T06:50:07;9.30;99.90
41928;DHT22;27616;51.420;6.788;2023-04-01T06:56:16;9.40;99.90
41928;DHT22;27616;51.420;6.788;2023-04-01T06:59:15;9.40;99.90
41928;DHT22;27616;51.420;6.788;2023-04-01T07:01:59;9.30;99.90
41928;DHT22;27616;51.420;6.788;2023-04-01T07:04:32;9.30;99.90
41928;DHT22;27616;51.420;6.788;2023-04-01T07:10:03;9.40;99.90
41928;DHT22;27616;51.420;6.788;2023-04-01T07:12:41;9.40;99.90
41928;DHT22;27616;51.420;6.788;2023-04-01T07:15:41;9.50;99.90
41928;DHT22;27616;51.420;6.788;2023-04-01T07:21:29;9.50;99.90
41928;DHT22;27616;51.420;6.788;2023-04-01T07:24:04;9.40;99.90
41928;DHT22;27616;51.420;6.788;2023-04-01T07:26:38;9.40;99.90
41928;DHT22;27616;51.420;6.788;2023-04-01T07:29:14;9.40;99.90
41928;DHT22;27616;51.420;6.788;2023-04-01T07:40:14;9.40;99.90
41928;DHT22;27616;51.420;6.788;2023-04-01T07:45:31;9.40;99.90
41928;DHT22;27616;51.420;6.788;2023-04-01T07:50:50;9.50;99.90
41928;DHT22;27616;51.420;6.788;2023-04-01T08:02:20;9.50;99.90
41928;DHT22;27616;51.420;6.788;2023-04-01T08:07:30;9.60;99.90
41928;DHT22;27616;51.420;6.788;2023-04-01T08:19:27;9.50;99.90
41928;DHT22;27616;51.420;6.788;2023-04-01T08:22:16;9.60;99.90
41928;DHT22;27616;51.420;6.788;2023-04-01T08:24:46;9.60;99.90
41928;DHT22;27616;51.420;6.788;2023-04-01T08:27:29;9.60;99.90
41928;DHT22;27616;51.420;6.788;2023-04-01T08:30:40;9.60;99.90
41928;DHT22;27616;51.420;6.788;2023-04-01T08:33:28;9.70;99.90
41928;DHT22;27616;51.420;6.788;2023-04-01T08:36:15;9.70;99.90
41928;DHT22;27616;51.420;6.788;2023-04-01T08:38:59;9.60;99.90
41928;DHT22;27616;51.420;6.788;2023-04-01T09:06:49;9.80;99.90
41928;DHT22;27616;51.420;6.788;2023-04-01T09:10:01;9.80;99.90
41928;DHT22;27616;51.420;6.788;2023-04-01T09:40:29;10.40;99.90
41928;DHT22;27616;51.420;6.788;2023-04-01T09:46:05;10.40;99.90
41928;DHT22;27616;51.420;6.788;2023-04-01T09:54:23;10.30;99.90
41928;DHT22;27616;51.420;6.788;2023-04-01T10:06:20;10.30;99.90
41928;DHT22;27616;51.420;6.788;2023-04-01T10:17:23;10.30;99.90
41928;DHT22;27616;51.420;6.788;2023-04-01T10:36:57;10.40;99.90
41928;DHT22;27616;51.420;6.788;2023-04-01T10:46:04;10.50;99.90
41928;DHT22;27616;51.420;6.788;2023-04-01T10:49:01;10.40;99.90
41928;DHT22;27616;51.420;6.788;2023-04-01T10:58:26;10.40;99.90
41928;DHT22;27616;51.420;6.788;2023-04-01T11:21:34;10.30;99.90
41928;DHT22;27616;51.420;6.788;2023-04-01T11:27:30;10.30;99.90
41928;DHT22;27616;51.420;6.788;2023-04-01T11:33:05;10.30;99.90
41928;DHT22;27616;51.420;6.788;2023-04-01T11:35:38;10.40;99.90
41928;DHT22;27616;51.420;6.788;2023-04-01T11:41:13;10.40;99.90
41928;DHT22;27616;51.420;6.788;2023-04-01T11:44:21;10.40;99.90
41928;DHT22;27616;51.420;6.788;2023-04-01T11:47:28;10.40;99.90
41928;DHT22;27616;51.420;6.788;2023-04-01T11:50:20;10.30;99.90
41928;DHT22;27616;51.420;6.788;2023-04-01T11:53:02;10.30;99.90
41928;DHT22;27616;51.420;6.788;2023-04-01T11:58:52;10.30;99.90
41928;DHT22;27616;51.420;6.788;2023-04-01T12:01:54;10.40;99.90
41928;DHT22;27616;51.420;6.788;2023-04-01T12:10:19;10.30;99.90
41928;DHT22;27616;51.420;6.788;2023-04-01T12:21:38;10.30;99.90
41928;DHT22;27616;51.420;6.788;2023-04-01T12:24:46;10.40;99.90
41928;DHT22;27616;51.420;6.788;2023-04-01T12:46:50;11.00;99.90
41928;DHT22;27616;51.420;6.788;2023-04-01T12:52:13;11.00;99.90
41928;DHT22;27616;51.420;6.788;2023-04-01T12:54:55;10.90;99.90
41928;DHT22;27616;51.420;6.788;2023-04-01T12:58:07;10.90;99.90
41928;DHT22;27616;51.420;6.788;2023-04-01T13:00:54;10.80;99.90
41928;DHT22;27616;51.420;6.788;2023-04-01T13:20:24;10.60;99.90
41928;DHT22;27616;51.420;6.788;2023-04-01T13:43:04;10.50;99.90
41928;DHT22;27616;51.420;6.788;2023-04-01T14:21:36;10.30;99.90
41928;DHT22;27616;51.420;6.788;2023-04-01T14:27:35;10.30;99.90
41928;DHT22;27616;51.420;6.788;2023-04-01T14:30:27;10.30;99.90
41928;DHT22;27616;51.420;6.788;2023-04-01T14:38:17;10.30;99.90
41928;DHT22;27616;51.420;6.788;2023-04-01T14:49:40;10.30;99.90
41928;DHT22;27616;51.420;6.788;2023-04-01T14:52:22;10.30;99.90
41928;DHT22;27616;51.420;6.788;2023-04-01T14:54:49;10.30;99.90
41928;DHT22;27616;51.420;6.788;2023-04-01T14:57:28;10.30;99.90
41928;DHT22;27616;51.420;6.788;2023-04-01T15:00:00;10.30;99.90
41928;DHT22;27616;51.420;6.788;2023-04-01T15:02:48;10.30;99.90
41928;DHT22;27616;51.420;6.788;2023-04-01T15:10:56;10.40;99.90
41928;DHT22;27616;51.420;6.788;2023-04-01T15:21:38;10.30;99.90
41928;DHT22;27616;51.420;6.788;2023-04-01T15:30:27;10.30;99.90
41928;DHT22;27616;51.420;6.788;2023-04-01T15:33:13;10.30;99.90
41928;DHT22;27616;51.420;6.788;2023-04-01T15:38:33;10.30;99.90
41928;DHT22;27616;51.420;6.788;2023-04-01T15:44:01;10.20;99.90
41928;DHT22;27616;51.420;6.788;2023-04-01T15:46:43;10.20;99.90
41928;DHT22;27616;51.420;6.788;2023-04-01T15:55:17;10.20;99.90
41928;DHT22;27616;51.420;6.788;2023-04-01T16:00:31;10.30;99.90
41928;DHT22;27616;51.420;6.788;2023-04-01T16:20:13;10.50;99.90
41928;DHT22;27616;51.420;6.788;2023-04-01T16:22:57;10.50;99.90
41928;DHT22;27616;51.420;6.788;2023-04-01T16:25:40;10.50;99.90
41928;DHT22;27616;51.420;6.788;2023-04-01T16:28:31;10.50;99.90
41928;DHT22;27616;51.420;6.788;2023-04-01T16:31:00;10.50;99.90
41928;DHT22;27616;51.420;6.788;2023-04-01T16:33:49;10.50;99.90
41928;DHT22;27616;51.420;6.788;2023-04-01T16:36:24;10.50;99.90
41928;DHT22;27616;51.420;6.788;2023-04-01T16:39:02;10.50;99.90
41928;DHT22;27616;51.420;6.788;2023-04-01T16:41:36;10.40;99.90
41928;DHT22;27616;51.420;6.788;2023-04-01T16:46:48;10.40;99.90
41928;DHT22;27616;51.420;6.788;2023-04-01T16:54:52;10.40;99.90
41928;DHT22;27616;51.420;6.788;2023-04-01T16:57:28;10.40;99.90
41928;DHT22;27616;51.420;6.788;2023-04-01T17:00:28;10.30;99.90
41928;DHT22;27616;51.420;6.788;2023-04-01T17:12:02;10.20;99.90
41928;DHT22;27616;51.420;6.788;2023-04-01T17:18:02;10.10;99.90
41928;DHT22;27616;51.420;6.788;2023-04-01T17:23:26;10.20;99.90
41928;DHT22;27616;51.420;6.788;2023-04-01T17:28:53;10.20;99.90
41928;DHT22;27616;51.420;6.788;2023-04-01T17:37:16;10.20;99.90
41928;DHT22;27616;51.420;6.788;2023-04-01T17:48:24;10.10;99.90
41928;DHT22;27616;51.420;6.788;2023-04-01T17:54:10;10.10;99.90
41928;DHT22;27616;51.420;6.788;2023-04-01T17:59:44;10.10;99.90
41928;DHT22;27616;51.420;6.788;2023-04-01T18:08:09;10.10;99.90
41928;DHT22;27616;51.420;6.788;2023-04-01T18:21:36;10.00;99.90
41928;DHT22;27616;51.420;6.788;2023-04-01T18:24:21;10.00;99.90
41928;DHT22;27616;51.420;6.788;2023-04-01T18:29:54;10.00;99.90
41928;DHT22;27616;51.420;6.788;2023-04-01T18:32:50;10.00;99.90
41928;DHT22;27616;51.420;6.788;2023-04-01T18:35:44;10.00;99.90
41928;DHT22;27616;51.420;6.788;2023-04-01T18:41:21;10.00;99.90
41928;DHT22;27616;51.420;6.788;2023-04-01T18:52:36;9.90;99.90
41928;DHT22;27616;51.420;6.788;2023-04-01T18:57:51;9.90;99.90
41928;DHT22;27616;51.420;6.788;2023-04-01T19:00:23;9.80;99.90
41928;DHT22;27616;51.420;6.788;2023-04-01T19:03:15;9.80;99.90
41928;DHT22;27616;51.420;6.788;2023-04-01T19:05:45;9.80;99.90
41928;DHT22;27616;51.420;6.788;2023-04-01T19:08:32;9.80;99.90
41928;DHT22;27616;51.420;6.788;2023-04-01T19:11:19;9.80;99.90
41928;DHT22;27616;51.420;6.788;2023-04-01T19:16:55;9.80;99.90
41928;DHT22;27616;51.420;6.788;2023-04-01T19:21:58;9.70;99.90
41928;DHT22;27616;51.420;6.788;2023-04-01T19:24:48;9.80;99.90
41928;DHT22;27616;51.420;6.788;2023-04-01T19:27:45;9.80;99.90
41928;DHT22;27616;51.420;6.788;2023-04-01T19:30:36;9.80;99.90
41928;DHT22;27616;51.420;6.788;2023-04-01T19:33:21;9.80;99.90
41928;DHT22;27616;51.420;6.788;2023-04-01T19:38:36;9.80;99.90
41928;DHT22;27616;51.420;6.788;2023-04-01T19:43:47;9.80;99.90
41928;DHT22;27616;51.420;6.788;2023-04-01T19:46:36;9.80;99.90
41928;DHT22;27616;51.420;6.788;2023-04-01T19:52:11;9.70;99.90
41928;DHT22;27616;51.420;6.788;2023-04-01T19:57:26;9.70;99.90
41928;DHT22;27616;51.420;6.788;2023-04-01T20:00:19;9.70;99.90
41928;DHT22;27616;51.420;6.788;2023-04-01T20:02:59;9.70;99.90
41928;DHT22;27616;51.420;6.788;2023-04-01T20:05:38;9.60;99.90
41928;DHT22;27616;51.420;6.788;2023-04-01T20:11:06;9.60;99.90
41928;DHT22;27616;51.420;6.788;2023-04-01T20:16:08;9.60;99.90
41928;DHT22;27616;51.420;6.788;2023-04-01T20:24:37;9.50;99.90
41928;DHT22;27616;51.420;6.788;2023-04-01T20:26:51;9.50;99.90
41928;DHT22;27616;51.420;6.788;2023-04-01T20:37:48;9.40;99.90
41928;DHT22;27616;51.420;6.788;2023-04-01T20:40:40;9.30;99.90
41928;DHT22;27616;51.420;6.788;2023-04-01T20:48:42;9.10;99.90
41928;DHT22;27616;51.420;6.788;2023-04-01T20:51:22;9.10;99.90
41928;DHT22;27616;51.420;6.788;2023-04-01T20:56:40;9.10;99.90
41928;DHT22;27616;51.420;6.788;2023-04-01T21:05:30;9.00;99.90
41928;DHT22;27616;51.420;6.788;2023-04-01T21:08:25;9.00;99.90
41928;DHT22;27616;51.420;6.788;2023-04-01T21:11:05;8.90;99.90
41928;DHT22;27616;51.420;6.788;2023-04-01T21:22:21;8.60;99.90
41928;DHT22;27616;51.420;6.788;2023-04-01T21:35:31;8.50;99.90
41928;DHT22;27616;51.420;6.788;2023-04-01T21:43:59;8.50;99.90
41928;DHT22;27616;51.420;6.788;2023-04-01T21:58:48;8.30;99.90
41928;DHT22;27616;51.420;6.788;2023-04-01T22:01:34;8.20;99.90
41928;DHT22;27616;51.420;6.788;2023-04-01T22:17:58;8.00;99.90
41928;DHT22;27616;51.420;6.788;2023-04-01T22:20:33;7.90;99.90
41928;DHT22;27616;51.420;6.788;2023-04-01T22:28:12;8.00;99.90
41928;DHT22;27616;51.420;6.788;2023-04-01T22:30:59;7.90;99.90
41928;DHT22;27616;51.420;6.788;2023-04-01T22:33:34;7.90;99.90
41928;DHT22;27616;51.420;6.788;2023-04-01T22:39:04;7.80;99.90
41928;DHT22;27616;51.420;6.788;2023-04-01T22:41:45;7.80;99.90
41928;DHT22;27616;51.420;6.788;2023-04-01T22:44:51;7.80;99.90
41928;DHT22;27616;51.420;6.788;2023-04-01T22:52:43;7.60;99.90
41928;DHT22;27616;51.420;6.788;2023-04-01T22:55:18;7.50;99.90
41928;DHT22;27616;51.420;6.788;2023-04-01T22:58:05;7.50;99.90
41928;DHT22;27616;51.420;6.788;2023-04-01T23:00:43;7.50;99.90
41928;DHT22;27616;51.420;6.788;2023-04-01T23:03:14;7.50;99.90
41928;DHT22;27616;51.420;6.788;2023-04-01T23:06:03;7.40;99.90
41928;DHT22;27616;51.420;6.788;2023-04-01T23:11:30;7.30;99.90
41928;DHT22;27616;51.420;6.788;2023-04-01T23:17:10;7.20;99.90
41928;DHT22;27616;51.420;6.788;2023-04-01T23:19:44;7.10;99.90
41928;DHT22;27616;51.420;6.788;2023-04-01T23:27:59;7.10;99.90
41928;DHT22;27616;51.420;6.788;2023-04-01T23:33:28;7.10;99.90
41928;DHT22;27616;51.420;6.788;2023-04-01T23:36:02;7.10;99.90
41928;DHT22;27616;51.420;6.788;2023-04-01T23:38:36;7.00;99.90
41928;DHT22;27616;51.420;6.788;2023-04-01T23:41:04;7.00;99.90
41928;DHT22;27616;51.420;6.788;2023-04-01T23:43:37;7.00;99.90
41928;DHT22;27616;51.420;6.788;2023-04-01T23:46:05;7.00;99.90
41928;DHT22;27616;51.420;6.788;2023-04-01T23:48:36;7.00;99.90
41928;DHT22;27616;51.420;6.788;2023-04-01T23:51:03;7.00;99.90
41928;DHT22;27616;51.420;6.788;2023-04-01T23:53:34;7.00;99.90
41928;DHT22;27616;51.420;6.788;2023-04-01T23:56:02;7.00;99.90
41928;DHT22;27616;51.420;6.788;2023-04-01T23:58:42;6.90;99.90
